Aérodrome :
LOGIN :

S'inscrire | Disclaimer

   EN    FR    IT 

 










Légende :    VFR   VFR Marginal   IFR   IFR Intensif   IFR Très Intensif
Visi : 
Plafond : 
>= 8 km
>= 3000ft
5 à 8 km
1000 à 3000 ft
1500m à 5 km
500 à 1000 ft
800 à 1500m
200 à 500 ft
< 800m
< 200 ft
Symboles :   Orages  Brouillard  Fortes neiges  Fortes précipitations  Vent > 20 kt
SIGMETs :   Divers  Orages  Givrage  Turbulence  Onde Orograph.  Cendres Volcan.






- Altitude de l'aérodrome : 776 ft
- Code IATA : RMS


ETAR - Ramstein Air Base

DERNIER METAR :
  • 172156Z 24013G19KT 9999 SCT025 SCT030 OVC050 07/05 A3015 RMK AO2A SLP219 T00710046 FZRANO $

METARs EXPIRÉS :
  • 172126Z 24011G16KT 9999 SCT025 OVC050 07/05 A3014 RMK AO2A SLP216 FZRANO $
  • 172056Z AUTO 23010G16KT 9999 OVC027 07/05 A3013 RMK AO2 OVC V BKN SLP212 P0080 63240 T00730046 52019 FZRANO
  • 172041Z AUTO 21008G16KT 9999 BKN027 07/05 A3012 RMK AO2 SLP209 FZRANO $
  • 171956Z AUTO 23009G16KT 9999 CLR 08/06 A3010 RMK AO2 SLP201 P1160 T00750055 FZRANO

TAF TAF ETAR
Valide du 17 à 18h jusqu'au 19 à 00h UTC


171800Z 1718/1900 24010G20KT 9999 NSW SCT030 BKN050 510003 QNH3004INS
BECMG 1801/1802 25010G30KT 8000 -SHRA SCT010 BKN020 610405 510003 QNH3017INS
BECMG 1805/1806 24015G25KT 9999 NSW SCT020 BKN040 510003 QNH3025INS
BECMG 1815/1816 22009KT 9999 SCT030 QNH3019INS TX09/1814Z TN04/1803Z



MET'MAP, la Météo Aéronautique d'un coup d'oeil ! - Copyright ORBIFLY Décembre 2007 - Disclaimer

ORBIFLY MET'MAP TEAM :

Programmation & Développement : Alexandra Zaïnal
Sur une idée originale de : Baudouin d'Aumeries
Assistance à la programmation : Marc-Olivier Méhu
Soutien technique & logistique : Manuel Goepfert

Contact : metmap@orbifly.com




SOURCES & CREDITS :

   NOAA